sensor_id;sensor_type;location;lat;lon;timestamp;pressure;altitude;pressure_sealevel;temperature;humidity
66524;BME280;53350;52.210;5.160;2023-05-22T00:00:25;101663.16;;;17.09;79.18
66524;BME280;53350;52.210;5.160;2023-05-22T00:02:53;101674.28;;;17.15;79.55
66524;BME280;53350;52.210;5.160;2023-05-22T00:05:21;101671.47;;;17.23;79.16
66524;BME280;53350;52.210;5.160;2023-05-22T00:07:48;101660.94;;;17.28;79.13
66524;BME280;53350;52.210;5.160;2023-05-22T00:10:14;101646.03;;;17.33;79.05
66524;BME280;53350;52.210;5.160;2023-05-22T00:12:40;101640.84;;;17.33;78.55
66524;BME280;53350;52.210;5.160;2023-05-22T00:15:08;101632.19;;;17.32;78.75
66524;BME280;53350;52.210;5.160;2023-05-22T00:17:35;101626.00;;;17.35;78.90
66524;BME280;53350;52.210;5.160;2023-05-22T00:20:04;101622.47;;;17.37;79.08
66524;BME280;53350;52.210;5.160;2023-05-22T00:22:33;101621.41;;;17.45;79.03
66524;BME280;53350;52.210;5.160;2023-05-22T00:25:00;101616.09;;;17.48;79.17
66524;BME280;53350;52.210;5.160;2023-05-22T00:27:27;101616.06;;;17.49;78.99
66524;BME280;53350;52.210;5.160;2023-05-22T00:29:53;101623.81;;;17.52;79.16
66524;BME280;53350;52.210;5.160;2023-05-22T00:32:20;101615.06;;;17.53;78.65
66524;BME280;53350;52.210;5.160;2023-05-22T00:34:46;101615.13;;;17.52;78.99
66524;BME280;53350;52.210;5.160;2023-05-22T00:37:14;101616.00;;;17.52;78.98
66524;BME280;53350;52.210;5.160;2023-05-22T00:39:40;101624.56;;;17.56;78.94
66524;BME280;53350;52.210;5.160;2023-05-22T00:42:07;101638.38;;;17.58;78.85
66524;BME280;53350;52.210;5.160;2023-05-22T00:44:33;101632.19;;;17.62;78.72
66524;BME280;53350;52.210;5.160;2023-05-22T00:46:59;101626.03;;;17.65;78.34
66524;BME280;53350;52.210;5.160;2023-05-22T00:49:26;101619.13;;;17.64;78.03
66524;BME280;53350;52.210;5.160;2023-05-22T00:51:52;101627.97;;;17.58;77.67
66524;BME280;53350;52.210;5.160;2023-05-22T00:54:20;101612.47;;;17.53;77.98
66524;BME280;53350;52.210;5.160;2023-05-22T00:56:47;101615.25;;;17.47;77.14
66524;BME280;53350;52.210;5.160;2023-05-22T00:59:14;101619.78;;;17.41;78.00
66524;BME280;53350;52.210;5.160;2023-05-22T01:01:42;101605.53;;;17.23;77.92
66524;BME280;53350;52.210;5.160;2023-05-22T01:04:10;101603.88;;;17.20;78.88
66524;BME280;53350;52.210;5.160;2023-05-22T01:06:37;101588.56;;;17.09;79.44
66524;BME280;53350;52.210;5.160;2023-05-22T01:09:05;101584.38;;;17.03;78.98
66524;BME280;53350;52.210;5.160;2023-05-22T01:11:39;101585.44;;;16.96;79.38
66524;BME280;53350;52.210;5.160;2023-05-22T01:14:14;101586.38;;;16.94;79.53
66524;BME280;53350;52.210;5.160;2023-05-22T01:16:48;101582.78;;;16.98;80.02
66524;BME280;53350;52.210;5.160;2023-05-22T01:19:37;101585.25;;;17.02;79.81
66524;BME280;53350;52.210;5.160;2023-05-22T01:22:19;101572.97;;;17.08;79.79
66524;BME280;53350;52.210;5.160;2023-05-22T01:25:11;101578.06;;;17.12;79.85
66524;BME280;53350;52.210;5.160;2023-05-22T01:27:58;101571.13;;;17.11;79.41
66524;BME280;53350;52.210;5.160;2023-05-22T01:30:49;101564.31;;;17.07;79.29
66524;BME280;53350;52.210;5.160;2023-05-22T01:33:20;101565.31;;;17.01;79.23
66524;BME280;53350;52.210;5.160;2023-05-22T01:35:50;101561.97;;;16.98;79.66
66524;BME280;53350;52.210;5.160;2023-05-22T01:38:18;101560.47;;;16.89;79.67
66524;BME280;53350;52.210;5.160;2023-05-22T01:40:45;101564.91;;;16.84;80.18
66524;BME280;53350;52.210;5.160;2023-05-22T01:43:14;101551.13;;;16.80;80.29
66524;BME280;53350;52.210;5.160;2023-05-22T01:45:40;101556.41;;;16.77;80.53
66524;BME280;53350;52.210;5.160;2023-05-22T01:48:08;101547.91;;;16.71;79.75
66524;BME280;53350;52.210;5.160;2023-05-22T01:50:36;101556.56;;;16.71;80.79
66524;BME280;53350;52.210;5.160;2023-05-22T01:53:07;101551.31;;;16.73;80.88
66524;BME280;53350;52.210;5.160;2023-05-22T01:55:40;101554.66;;;16.78;81.19
66524;BME280;53350;52.210;5.160;2023-05-22T01:58:13;101553.81;;;16.77;80.77
66524;BME280;53350;52.210;5.160;2023-05-22T02:00:42;101552.94;;;16.77;79.92
66524;BME280;53350;52.210;5.160;2023-05-22T02:03:15;101544.38;;;16.73;80.81
66524;BME280;53350;52.210;5.160;2023-05-22T02:05:43;101530.56;;;16.71;81.11
66524;BME280;53350;52.210;5.160;2023-05-22T02:08:11;101521.06;;;16.70;80.31
66524;BME280;53350;52.210;5.160;2023-05-22T02:10:39;101526.22;;;16.72;81.14
66524;BME280;53350;52.210;5.160;2023-05-22T02:13:07;101523.63;;;16.72;81.10
66524;BME280;53350;52.210;5.160;2023-05-22T02:15:34;101521.91;;;16.71;80.60
66524;BME280;53350;52.210;5.160;2023-05-22T02:18:01;101522.78;;;16.69;80.69
66524;BME280;53350;52.210;5.160;2023-05-22T02:20:28;101523.66;;;16.70;81.08
66524;BME280;53350;52.210;5.160;2023-05-22T02:22:55;101514.84;;;16.74;81.11
66524;BME280;53350;52.210;5.160;2023-05-22T02:25:21;101515.63;;;16.78;80.84
66524;BME280;53350;52.210;5.160;2023-05-22T02:27:48;101515.53;;;16.81;80.46
66524;BME280;53350;52.210;5.160;2023-05-22T02:30:14;101515.53;;;16.81;80.31
66524;BME280;53350;52.210;5.160;2023-05-22T02:32:41;101513.78;;;16.83;80.61
66524;BME280;53350;52.210;5.160;2023-05-22T02:35:08;101509.41;;;16.83;80.52
66524;BME280;53350;52.210;5.160;2023-05-22T02:37:37;101520.56;;;16.87;80.09
66524;BME280;53350;52.210;5.160;2023-05-22T02:40:04;101515.34;;;16.89;80.09
66524;BME280;53350;52.210;5.160;2023-05-22T02:42:31;101508.38;;;16.91;79.69
66524;BME280;53350;52.210;5.160;2023-05-22T02:44:57;101509.22;;;16.91;79.44
66524;BME280;53350;52.210;5.160;2023-05-22T02:47:24;101504.91;;;16.92;79.44
66524;BME280;53350;52.210;5.160;2023-05-22T02:49:50;101505.72;;;16.92;79.29
66524;BME280;53350;52.210;5.160;2023-05-22T02:52:16;101510.94;;;16.92;79.05
66524;BME280;53350;52.210;5.160;2023-05-22T02:54:44;101507.50;;;16.92;78.97
66524;BME280;53350;52.210;5.160;2023-05-22T02:57:11;101506.66;;;16.90;78.81
66524;BME280;53350;52.210;5.160;2023-05-22T02:59:37;101511.03;;;16.89;78.65
66524;BME280;53350;52.210;5.160;2023-05-22T03:02:04;101503.28;;;16.88;78.59
66524;BME280;53350;52.210;5.160;2023-05-22T03:04:31;101506.72;;;16.88;78.42
66524;BME280;53350;52.210;5.160;2023-05-22T03:06:58;101508.47;;;16.88;78.34
66524;BME280;53350;52.210;5.160;2023-05-22T03:09:25;101506.72;;;16.86;78.10
66524;BME280;53350;52.210;5.160;2023-05-22T03:11:53;101509.31;;;16.86;78.19
66524;BME280;53350;52.210;5.160;2023-05-22T03:14:19;101492.84;;;16.88;78.07
66524;BME280;53350;52.210;5.160;2023-05-22T03:16:46;101498.91;;;16.86;78.08
66524;BME280;53350;52.210;5.160;2023-05-22T03:19:13;101491.09;;;16.88;77.88
66524;BME280;53350;52.210;5.160;2023-05-22T03:21:41;101502.34;;;16.87;77.61
66524;BME280;53350;52.210;5.160;2023-05-22T03:24:08;101503.31;;;16.84;77.64
66524;BME280;53350;52.210;5.160;2023-05-22T03:26:35;101499.06;;;16.82;77.45
66524;BME280;53350;52.210;5.160;2023-05-22T03:29:03;101500.91;;;16.77;77.39
66524;BME280;53350;52.210;5.160;2023-05-22T03:31:31;101492.41;;;16.72;77.53
66524;BME280;53350;52.210;5.160;2023-05-22T03:33:57;101496.78;;;16.69;77.75
66524;BME280;53350;52.210;5.160;2023-05-22T03:36:24;101495.09;;;16.68;77.63
66524;BME280;53350;52.210;5.160;2023-05-22T03:38:50;101489.06;;;16.66;77.61
66524;BME280;53350;52.210;5.160;2023-05-22T03:41:17;101490.88;;;16.64;77.52
66524;BME280;53350;52.210;5.160;2023-05-22T03:43:44;101495.22;;;16.62;77.52
66524;BME280;53350;52.210;5.160;2023-05-22T03:46:12;101494.38;;;16.62;77.42
66524;BME280;53350;52.210;5.160;2023-05-22T03:48:38;101495.19;;;16.64;77.50
66524;BME280;53350;52.210;5.160;2023-05-22T03:51:05;101498.66;;;16.64;77.58
66524;BME280;53350;52.210;5.160;2023-05-22T03:53:31;101491.69;;;16.65;77.61
66524;BME280;53350;52.210;5.160;2023-05-22T03:55:57;101494.31;;;16.65;77.69
66524;BME280;53350;52.210;5.160;2023-05-22T03:58:24;101504.75;;;16.63;77.51
66524;BME280;53350;52.210;5.160;2023-05-22T04:00:52;101501.25;;;16.64;77.53
66524;BME280;53350;52.210;5.160;2023-05-22T04:03:20;101509.91;;;16.65;77.53
66524;BME280;53350;52.210;5.160;2023-05-22T04:05:46;101507.25;;;16.66;77.48
66524;BME280;53350;52.210;5.160;2023-05-22T04:08:13;101502.03;;;16.68;77.51
66524;BME280;53350;52.210;5.160;2023-05-22T04:10:39;101502.84;;;16.70;77.72
66524;BME280;53350;52.210;5.160;2023-05-22T04:13:06;101504.53;;;16.71;77.78
66524;BME280;53350;52.210;5.160;2023-05-22T04:15:33;101519.22;;;16.74;77.82
66524;BME280;53350;52.210;5.160;2023-05-22T04:18:00;101537.38;;;16.75;78.07
66524;BME280;53350;52.210;5.160;2023-05-22T04:20:28;101530.47;;;16.74;78.13
66524;BME280;53350;52.210;5.160;2023-05-22T04:22:54;101534.78;;;16.75;78.16
66524;BME280;53350;52.210;5.160;2023-05-22T04:25:21;101534.81;;;16.74;78.70
66524;BME280;53350;52.210;5.160;2023-05-22T04:27:48;101524.53;;;16.69;78.81
66524;BME280;53350;52.210;5.160;2023-05-22T04:30:15;101539.28;;;16.70;79.02
66524;BME280;53350;52.210;5.160;2023-05-22T04:32:42;101540.16;;;16.69;78.98
66524;BME280;53350;52.210;5.160;2023-05-22T04:35:09;101541.88;;;16.70;79.25
66524;BME280;53350;52.210;5.160;2023-05-22T04:37:37;101548.00;;;16.67;79.05
66524;BME280;53350;52.210;5.160;2023-05-22T04:40:07;101541.97;;;16.65;79.07
66524;BME280;53350;52.210;5.160;2023-05-22T04:42:35;101543.78;;;16.63;79.09
66524;BME280;53350;52.210;5.160;2023-05-22T04:45:02;101559.16;;;16.71;78.59
66524;BME280;53350;52.210;5.160;2023-05-22T04:47:29;101557.25;;;16.78;79.23
66524;BME280;53350;52.210;5.160;2023-05-22T04:49:56;101551.00;;;16.85;79.39
66524;BME280;53350;52.210;5.160;2023-05-22T04:52:22;101556.94;;;16.92;79.14
66524;BME280;53350;52.210;5.160;2023-05-22T04:54:50;101558.47;;;16.99;79.08
66524;BME280;53350;52.210;5.160;2023-05-22T04:57:17;101564.31;;;17.07;78.88
66524;BME280;53350;52.210;5.160;2023-05-22T04:59:45;101557.31;;;17.09;78.70
66524;BME280;53350;52.210;5.160;2023-05-22T05:02:12;101554.66;;;17.11;79.06
66524;BME280;53350;52.210;5.160;2023-05-22T05:04:39;101542.28;;;17.19;78.86
66524;BME280;53350;52.210;5.160;2023-05-22T05:07:05;101548.13;;;17.27;78.70
66524;BME280;53350;52.210;5.160;2023-05-22T05:09:33;101547.94;;;17.33;78.55
66524;BME280;53350;52.210;5.160;2023-05-22T05:12:01;101546.94;;;17.37;78.46
66524;BME280;53350;52.210;5.160;2023-05-22T05:14:27;101551.91;;;17.47;78.48
66524;BME280;53350;52.210;5.160;2023-05-22T05:16:54;101550.72;;;17.57;78.33
66524;BME280;53350;52.210;5.160;2023-05-22T05:19:21;101553.88;;;17.68;78.17
66524;BME280;53350;52.210;5.160;2023-05-22T05:21:47;101552.63;;;17.80;77.98
66524;BME280;53350;52.210;5.160;2023-05-22T05:24:15;101544.44;;;17.93;77.89
66524;BME280;53350;52.210;5.160;2023-05-22T05:26:42;101549.91;;;18.12;77.84
66524;BME280;53350;52.210;5.160;2023-05-22T05:29:10;101556.34;;;18.28;77.51
66524;BME280;53350;52.210;5.160;2023-05-22T05:31:37;101552.25;;;18.46;77.47
66524;BME280;53350;52.210;5.160;2023-05-22T05:34:03;101556.97;;;18.62;76.71
66524;BME280;53350;52.210;5.160;2023-05-22T05:36:30;101550.22;;;18.80;76.79
66524;BME280;53350;52.210;5.160;2023-05-22T05:38:56;101553.06;;;18.99;75.72
66524;BME280;53350;52.210;5.160;2023-05-22T05:41:23;101545.63;;;19.11;75.30
66524;BME280;53350;52.210;5.160;2023-05-22T05:43:50;101553.13;;;19.21;75.64
66524;BME280;53350;52.210;5.160;2023-05-22T05:46:18;101539.66;;;19.32;74.81
66524;BME280;53350;52.210;5.160;2023-05-22T05:48:45;101538.41;;;19.42;75.23
66524;BME280;53350;52.210;5.160;2023-05-22T05:51:11;101542.38;;;19.52;74.71
66524;BME280;53350;52.210;5.160;2023-05-22T05:53:37;101546.22;;;19.66;74.13
66524;BME280;53350;52.210;5.160;2023-05-22T05:56:05;101540.41;;;19.81;75.00
66524;BME280;53350;52.210;5.160;2023-05-22T05:58:32;101540.69;;;19.95;73.43
66524;BME280;53350;52.210;5.160;2023-05-22T06:00:59;101535.19;;;20.03;73.08
66524;BME280;53350;52.210;5.160;2023-05-22T06:03:26;101536.63;;;20.10;72.97
66524;BME280;53350;52.210;5.160;2023-05-22T06:05:53;101540.63;;;20.19;72.80
66524;BME280;53350;52.210;5.160;2023-05-22T06:08:21;101547.16;;;20.29;72.89
66524;BME280;53350;52.210;5.160;2023-05-22T06:10:48;101543.25;;;20.40;72.26
66524;BME280;53350;52.210;5.160;2023-05-22T06:13:14;101536.78;;;20.48;71.83
66524;BME280;53350;52.210;5.160;2023-05-22T06:15:41;101534.03;;;20.52;71.53
66524;BME280;53350;52.210;5.160;2023-05-22T06:18:07;101534.84;;;20.52;71.50
66524;BME280;53350;52.210;5.160;2023-05-22T06:20:35;101531.94;;;20.60;71.45
66524;BME280;53350;52.210;5.160;2023-05-22T06:23:03;101536.06;;;20.65;71.58
66524;BME280;53350;52.210;5.160;2023-05-22T06:25:29;101541.88;;;20.72;71.01
66524;BME280;53350;52.210;5.160;2023-05-22T06:27:56;101543.31;;;20.79;71.25
66524;BME280;53350;52.210;5.160;2023-05-22T06:30:22;101543.06;;;20.86;70.28
66524;BME280;53350;52.210;5.160;2023-05-22T06:32:48;101546.44;;;20.88;70.20
66524;BME280;53350;52.210;5.160;2023-05-22T06:35:16;101549.84;;;20.90;70.62
66524;BME280;53350;52.210;5.160;2023-05-22T06:37:44;101539.22;;;20.93;70.65
66524;BME280;53350;52.210;5.160;2023-05-22T06:40:11;101546.75;;;21.00;70.44
66524;BME280;53350;52.210;5.160;2023-05-22T06:42:37;101556.94;;;21.07;70.66
66524;BME280;53350;52.210;5.160;2023-05-22T06:45:05;101544.69;;;21.07;70.20
66524;BME280;53350;52.210;5.160;2023-05-22T06:47:32;101551.72;;;21.07;70.11
66524;BME280;53350;52.210;5.160;2023-05-22T06:49:58;101557.69;;;21.10;70.60
66524;BME280;53350;52.210;5.160;2023-05-22T06:52:25;101553.97;;;21.14;70.33
66524;BME280;53350;52.210;5.160;2023-05-22T06:54:52;101558.00;;;21.22;70.20
66524;BME280;53350;52.210;5.160;2023-05-22T06:57:19;101560.44;;;21.26;70.49
66524;BME280;53350;52.210;5.160;2023-05-22T06:59:48;101570.78;;;21.29;69.91
66524;BME280;53350;52.210;5.160;2023-05-22T07:02:14;101572.28;;;21.35;70.13
66524;BME280;53350;52.210;5.160;2023-05-22T07:04:41;101562.41;;;21.40;70.25
66524;BME280;53350;52.210;5.160;2023-05-22T07:07:08;101562.19;;;21.45;70.13
66524;BME280;53350;52.210;5.160;2023-05-22T07:09:35;101560.38;;;21.47;69.60
66524;BME280;53350;52.210;5.160;2023-05-22T07:12:04;101567.13;;;21.52;69.32
66524;BME280;53350;52.210;5.160;2023-05-22T07:14:30;101568.53;;;21.60;69.31
66524;BME280;53350;52.210;5.160;2023-05-22T07:16:57;101570.16;;;21.62;69.03
66524;BME280;53350;52.210;5.160;2023-05-22T07:19:23;101567.19;;;21.70;68.79
66524;BME280;53350;52.210;5.160;2023-05-22T07:21:50;101566.13;;;21.74;68.98
66524;BME280;53350;52.210;5.160;2023-05-22T07:24:16;101571.91;;;21.81;68.49
66524;BME280;53350;52.210;5.160;2023-05-22T07:26:42;101569.00;;;21.87;67.77
66524;BME280;53350;52.210;5.160;2023-05-22T07:29:12;101575.44;;;21.99;67.87
66524;BME280;53350;52.210;5.160;2023-05-22T07:31:38;101576.13;;;22.02;67.54
66524;BME280;53350;52.210;5.160;2023-05-22T07:34:06;101575.88;;;22.07;66.56
66524;BME280;53350;52.210;5.160;2023-05-22T07:36:32;101578.31;;;22.12;66.80
66524;BME280;53350;52.210;5.160;2023-05-22T07:38:59;101578.31;;;22.12;67.13
66524;BME280;53350;52.210;5.160;2023-05-22T07:41:26;101577.16;;;22.17;66.80
66524;BME280;53350;52.210;5.160;2023-05-22T07:43:52;101583.16;;;22.19;66.73
66524;BME280;53350;52.210;5.160;2023-05-22T07:46:20;101577.00;;;22.20;66.47
66524;BME280;53350;52.210;5.160;2023-05-22T07:48:47;101577.19;;;22.16;66.57
66524;BME280;53350;52.210;5.160;2023-05-22T07:51:13;101582.69;;;22.29;65.99
66524;BME280;53350;52.210;5.160;2023-05-22T07:53:39;101575.56;;;22.32;65.96
66524;BME280;53350;52.210;5.160;2023-05-22T07:56:06;101576.53;;;22.30;65.88
66524;BME280;53350;52.210;5.160;2023-05-22T07:58:32;101582.28;;;22.38;65.76
66524;BME280;53350;52.210;5.160;2023-05-22T08:00:59;101579.19;;;22.47;65.56
66524;BME280;53350;52.210;5.160;2023-05-22T08:03:27;101578.50;;;22.61;65.27
66524;BME280;53350;52.210;5.160;2023-05-22T08:05:53;101576.22;;;22.71;65.68
66524;BME280;53350;52.210;5.160;2023-05-22T08:08:20;101580.09;;;22.81;65.05
66524;BME280;53350;52.210;5.160;2023-05-22T08:10:46;101580.75;;;22.85;64.71
66524;BME280;53350;52.210;5.160;2023-05-22T08:13:13;101581.53;;;22.87;64.31
66524;BME280;53350;52.210;5.160;2023-05-22T08:15:41;101583.31;;;22.86;64.50
66524;BME280;53350;52.210;5.160;2023-05-22T08:18:07;101583.94;;;22.91;64.16
66524;BME280;53350;52.210;5.160;2023-05-22T08:20:35;101579.88;;;23.02;64.04
66524;BME280;53350;52.210;5.160;2023-05-22T08:23:02;101580.13;;;23.15;64.21
66524;BME280;53350;52.210;5.160;2023-05-22T08:25:28;101585.03;;;23.21;63.50
66524;BME280;53350;52.210;5.160;2023-05-22T08:27:54;101583.03;;;23.26;63.56
66524;BME280;53350;52.210;5.160;2023-05-22T08:30:21;101591.91;;;23.23;63.52
66524;BME280;53350;52.210;5.160;2023-05-22T08:32:48;101580.78;;;23.18;63.48
66524;BME280;53350;52.210;5.160;2023-05-22T08:35:15;101585.44;;;23.13;64.03
66524;BME280;53350;52.210;5.160;2023-05-22T08:37:43;101581.88;;;23.14;63.92
66524;BME280;53350;52.210;5.160;2023-05-22T08:40:10;101582.75;;;23.15;64.22
66524;BME280;53350;52.210;5.160;2023-05-22T08:42:37;101574.00;;;23.14;63.89
66524;BME280;53350;52.210;5.160;2023-05-22T08:45:05;101569.00;;;23.25;63.87
66524;BME280;53350;52.210;5.160;2023-05-22T08:47:32;101572.50;;;23.42;64.86
66524;BME280;53350;52.210;5.160;2023-05-22T08:50:00;101573.25;;;23.60;62.88
66524;BME280;53350;52.210;5.160;2023-05-22T08:52:31;101572.50;;;23.74;63.14
66524;BME280;53350;52.210;5.160;2023-05-22T08:55:02;101575.91;;;23.92;61.76
66524;BME280;53350;52.210;5.160;2023-05-22T08:57:30;101577.25;;;23.99;61.59
66524;BME280;53350;52.210;5.160;2023-05-22T08:59:56;101567.03;;;24.09;61.31
66524;BME280;53350;52.210;5.160;2023-05-22T09:02:24;101562.75;;;24.22;61.21
66524;BME280;53350;52.210;5.160;2023-05-22T09:04:51;101563.16;;;24.30;60.81
66524;BME280;53350;52.210;5.160;2023-05-22T09:07:17;101565.78;;;24.30;60.07
66524;BME280;53350;52.210;5.160;2023-05-22T09:09:46;101563.72;;;24.36;60.59
66524;BME280;53350;52.210;5.160;2023-05-22T09:12:14;101557.25;;;24.56;60.31
66524;BME280;53350;52.210;5.160;2023-05-22T09:14:41;101556.94;;;24.76;59.52
66524;BME280;53350;52.210;5.160;2023-05-22T09:17:10;101554.88;;;24.96;57.78
66524;BME280;53350;52.210;5.160;2023-05-22T09:19:42;101553.56;;;25.03;57.56
66524;BME280;53350;52.210;5.160;2023-05-22T09:22:09;101552.88;;;24.99;56.97
66524;BME280;53350;52.210;5.160;2023-05-22T09:24:37;101550.16;;;24.87;56.96
66524;BME280;53350;52.210;5.160;2023-05-22T09:27:04;101545.06;;;24.83;57.75
66524;BME280;53350;52.210;5.160;2023-05-22T09:29:46;101540.91;;;24.94;57.57
66524;BME280;53350;52.210;5.160;2023-05-22T09:32:13;101544.03;;;25.15;56.88
66524;BME280;53350;52.210;5.160;2023-05-22T09:34:39;101544.00;;;25.29;56.63
66524;BME280;53350;52.210;5.160;2023-05-22T09:37:07;101545.44;;;25.35;55.88
66524;BME280;53350;52.210;5.160;2023-05-22T09:39:40;101551.63;;;25.34;54.59
66524;BME280;53350;52.210;5.160;2023-05-22T09:42:09;101544.66;;;25.33;54.57
66524;BME280;53350;52.210;5.160;2023-05-22T09:44:37;101541.88;;;25.36;54.39
66524;BME280;53350;52.210;5.160;2023-05-22T09:47:07;101555.88;;;25.37;53.94
66524;BME280;53350;52.210;5.160;2023-05-22T09:49:35;101549.09;;;25.32;53.57
66524;BME280;53350;52.210;5.160;2023-05-22T09:52:03;101548.63;;;25.11;53.74
66524;BME280;53350;52.210;5.160;2023-05-22T09:54:33;101548.81;;;25.08;54.20
66524;BME280;53350;52.210;5.160;2023-05-22T09:57:00;101545.75;;;25.02;54.27
66524;BME280;53350;52.210;5.160;2023-05-22T09:59:32;101545.34;;;25.08;54.09
66524;BME280;53350;52.210;5.160;2023-05-22T10:02:04;101557.00;;;25.18;54.75
66524;BME280;53350;52.210;5.160;2023-05-22T10:04:32;101545.81;;;25.29;54.49
66524;BME280;53350;52.210;5.160;2023-05-22T10:07:01;101539.28;;;25.34;54.03
66524;BME280;53350;52.210;5.160;2023-05-22T10:09:30;101541.47;;;25.28;54.33
66524;BME280;53350;52.210;5.160;2023-05-22T10:12:02;101548.47;;;25.14;53.68
66524;BME280;53350;52.210;5.160;2023-05-22T10:14:33;101553.84;;;24.98;53.72
66524;BME280;53350;52.210;5.160;2023-05-22T10:17:00;101545.06;;;24.98;53.31
66524;BME280;53350;52.210;5.160;2023-05-22T10:19:30;101548.81;;;25.08;52.93
66524;BME280;53350;52.210;5.160;2023-05-22T10:21:59;101547.78;;;25.25;52.90
66524;BME280;53350;52.210;5.160;2023-05-22T10:24:26;101547.38;;;25.46;53.22
66524;BME280;53350;52.210;5.160;2023-05-22T10:26:53;101544.38;;;25.65;52.84
66524;BME280;53350;52.210;5.160;2023-05-22T10:29:22;101544.69;;;25.88;52.41
66524;BME280;53350;52.210;5.160;2023-05-22T10:31:54;101545.13;;;25.94;52.24
66524;BME280;53350;52.210;5.160;2023-05-22T10:34:26;101536.66;;;25.89;51.85
66524;BME280;53350;52.210;5.160;2023-05-22T10:37:07;101533.03;;;25.77;52.22
66524;BME280;53350;52.210;5.160;2023-05-22T10:39:42;101529.75;;;25.74;52.60
66524;BME280;53350;52.210;5.160;2023-05-22T10:42:14;101538.00;;;25.82;52.08
66524;BME280;53350;52.210;5.160;2023-05-22T10:44:41;101536.50;;;25.78;51.92
66524;BME280;53350;52.210;5.160;2023-05-22T10:47:08;101529.38;;;25.80;52.27
66524;BME280;53350;52.210;5.160;2023-05-22T10:49:39;101531.38;;;25.89;51.79
66524;BME280;53350;52.210;5.160;2023-05-22T10:52:08;101523.63;;;26.00;51.38
66524;BME280;53350;52.210;5.160;2023-05-22T10:54:38;101523.75;;;26.12;51.28
66524;BME280;53350;52.210;5.160;2023-05-22T10:57:10;101524.28;;;26.17;50.83
66524;BME280;53350;52.210;5.160;2023-05-22T10:59:38;101520.50;;;26.21;51.13
66524;BME280;53350;52.210;5.160;2023-05-22T11:02:05;101527.56;;;26.20;50.52
66524;BME280;53350;52.210;5.160;2023-05-22T11:04:43;101521.63;;;26.17;50.61
66524;BME280;53350;52.210;5.160;2023-05-22T11:07:11;101520.16;;;26.26;50.46
66524;BME280;53350;52.210;5.160;2023-05-22T11:09:39;101517.44;;;26.40;49.94
66524;BME280;53350;52.210;5.160;2023-05-22T11:12:15;101504.97;;;26.55;50.16
66524;BME280;53350;52.210;5.160;2023-05-22T11:14:46;101508.25;;;26.71;49.69
66524;BME280;53350;52.210;5.160;2023-05-22T11:17:15;101500.41;;;26.83;50.08
66524;BME280;53350;52.210;5.160;2023-05-22T11:19:43;101507.41;;;26.84;49.40
66524;BME280;53350;52.210;5.160;2023-05-22T11:22:11;101508.69;;;26.78;50.25
66524;BME280;53350;52.210;5.160;2023-05-22T11:24:38;101500.66;;;26.80;49.64
66524;BME280;53350;52.210;5.160;2023-05-22T11:27:06;101505.06;;;26.79;49.06
66524;BME280;53350;52.210;5.160;2023-05-22T11:29:33;101504.84;;;26.82;49.57
66524;BME280;53350;52.210;5.160;2023-05-22T11:32:00;101502.72;;;26.87;49.36
66524;BME280;53350;52.210;5.160;2023-05-22T11:34:27;101493.00;;;26.88;49.69
66524;BME280;53350;52.210;5.160;2023-05-22T11:36:56;101500.81;;;26.89;50.10
66524;BME280;53350;52.210;5.160;2023-05-22T11:39:25;101494.34;;;26.94;49.49
66524;BME280;53350;52.210;5.160;2023-05-22T11:41:51;101496.06;;;26.95;49.81
66524;BME280;53350;52.210;5.160;2023-05-22T11:44:17;101497.75;;;26.96;49.14
66524;BME280;53350;52.210;5.160;2023-05-22T11:46:44;101494.13;;;26.97;50.03
66524;BME280;53350;52.210;5.160;2023-05-22T11:49:10;101499.50;;;27.08;49.44
66524;BME280;53350;52.210;5.160;2023-05-22T11:51:37;101502.91;;;27.10;49.17
66524;BME280;53350;52.210;5.160;2023-05-22T11:54:05;101498.38;;;26.99;49.53
66524;BME280;53350;52.210;5.160;2023-05-22T11:56:33;101496.72;;;26.85;49.44
66524;BME280;53350;52.210;5.160;2023-05-22T11:58:59;101497.13;;;26.92;49.25
66524;BME280;53350;52.210;5.160;2023-05-22T12:01:26;101493.19;;;26.98;48.37
66524;BME280;53350;52.210;5.160;2023-05-22T12:03:52;101502.25;;;27.06;48.91
66524;BME280;53350;52.210;5.160;2023-05-22T12:06:19;101497.03;;;27.18;47.35
66524;BME280;53350;52.210;5.160;2023-05-22T12:08:45;101507.06;;;27.25;46.90
66524;BME280;53350;52.210;5.160;2023-05-22T12:11:12;101501.88;;;27.24;46.80
66524;BME280;53350;52.210;5.160;2023-05-22T12:13:39;101515.00;;;27.25;46.86
66524;BME280;53350;52.210;5.160;2023-05-22T12:16:16;101512.69;;;27.21;46.97
66524;BME280;53350;52.210;5.160;2023-05-22T12:18:43;101511.84;;;27.20;47.12
66524;BME280;53350;52.210;5.160;2023-05-22T12:21:09;101524.75;;;27.25;47.55
66524;BME280;53350;52.210;5.160;2023-05-22T12:23:46;101512.03;;;27.30;46.34
66524;BME280;53350;52.210;5.160;2023-05-22T12:26:13;101521.03;;;27.28;44.88
66524;BME280;53350;52.210;5.160;2023-05-22T12:28:41;101521.19;;;27.13;45.78
66524;BME280;53350;52.210;5.160;2023-05-22T12:31:07;101520.28;;;27.01;45.78
66524;BME280;53350;52.210;5.160;2023-05-22T12:33:34;101520.78;;;26.94;45.79
66524;BME280;53350;52.210;5.160;2023-05-22T12:36:06;101514.56;;;26.95;46.71
66524;BME280;53350;52.210;5.160;2023-05-22T12:38:33;101517.94;;;26.97;47.72
66524;BME280;53350;52.210;5.160;2023-05-22T12:40:59;101516.38;;;26.94;48.30
66524;BME280;53350;52.210;5.160;2023-05-22T12:43:26;101510.88;;;26.84;49.12
66524;BME280;53350;52.210;5.160;2023-05-22T12:45:54;101522.31;;;26.72;50.18
66524;BME280;53350;52.210;5.160;2023-05-22T12:48:20;101523.03;;;26.61;49.92
66524;BME280;53350;52.210;5.160;2023-05-22T12:50:47;101545.31;;;26.31;49.54
66524;BME280;53350;52.210;5.160;2023-05-22T12:53:13;101528.97;;;26.26;49.65